sensor_id;sensor_type;location;lat;lon;timestamp;temperature;humidity
4314;DHT22;2170;48.794;9.182;2023-09-18T01:22:00;21.00;99.90
4314;DHT22;2170;48.794;9.182;2023-09-18T01:32:36;21.00;99.90
4314;DHT22;2170;48.794;9.182;2023-09-18T01:37:59;21.10;99.90
4314;DHT22;2170;48.794;9.182;2023-09-18T01:39:31;21.20;99.90
4314;DHT22;2170;48.794;9.182;2023-09-18T01:42:58;21.20;99.90
4314;DHT22;2170;48.794;9.182;2023-09-18T02:08:18;21.90;99.90
4314;DHT22;2170;48.794;9.182;2023-09-18T02:10:53;22.00;99.90
4314;DHT22;2170;48.794;9.182;2023-09-18T02:14:18;22.00;99.90
4314;DHT22;2170;48.794;9.182;2023-09-18T02:17:23;21.90;99.90
4314;DHT22;2170;48.794;9.182;2023-09-18T02:20:14;21.90;99.90
4314;DHT22;2170;48.794;9.182;2023-09-18T02:30:04;21.70;99.90
4314;DHT22;2170;48.794;9.182;2023-09-18T02:33:01;21.70;99.90
4314;DHT22;2170;48.794;9.182;2023-09-18T02:44:02;21.60;99.90
4314;DHT22;2170;48.794;9.182;2023-09-18T02:50:07;21.80;99.90
4314;DHT22;2170;48.794;9.182;2023-09-18T02:53:17;21.80;99.90
4314;DHT22;2170;48.794;9.182;2023-09-18T02:56:32;21.80;99.90
4314;DHT22;2170;48.794;9.182;2023-09-18T02:59:27;21.80;99.90
4314;DHT22;2170;48.794;9.182;2023-09-18T03:02:29;21.70;99.90
4314;DHT22;2170;48.794;9.182;2023-09-18T03:05:44;21.60;99.90
4314;DHT22;2170;48.794;9.182;2023-09-18T03:09:06;21.50;99.90
4314;DHT22;2170;48.794;9.182;2023-09-18T03:12:15;21.50;99.90
4314;DHT22;2170;48.794;9.182;2023-09-18T03:15:17;21.40;99.90
4314;DHT22;2170;48.794;9.182;2023-09-18T03:18:05;21.30;99.90
4314;DHT22;2170;48.794;9.182;2023-09-18T03:27:33;21.20;99.90
4314;DHT22;2170;48.794;9.182;2023-09-18T03:30:45;21.20;99.90
4314;DHT22;2170;48.794;9.182;2023-09-18T03:34:22;21.10;99.90
4314;DHT22;2170;48.794;9.182;2023-09-18T03:36:59;21.00;99.90
4314;DHT22;2170;48.794;9.182;2023-09-18T03:42:57;20.90;99.90
4314;DHT22;2170;48.794;9.182;2023-09-18T03:45:47;20.80;99.90
4314;DHT22;2170;48.794;9.182;2023-09-18T03:48:43;20.80;99.90
4314;DHT22;2170;48.794;9.182;2023-09-18T03:51:44;20.80;99.90
4314;DHT22;2170;48.794;9.182;2023-09-18T03:57:56;20.90;99.90
4314;DHT22;2170;48.794;9.182;2023-09-18T04:01:29;20.90;99.90
4314;DHT22;2170;48.794;9.182;2023-09-18T05:03:32;20.50;99.90
4314;DHT22;2170;48.794;9.182;2023-09-18T05:06:51;20.40;99.90
4314;DHT22;2170;48.794;9.182;2023-09-18T05:16:28;20.40;99.90
4314;DHT22;2170;48.794;9.182;2023-09-18T05:19:24;20.40;99.90
4314;DHT22;2170;48.794;9.182;2023-09-18T05:25:57;20.40;99.90
4314;DHT22;2170;48.794;9.182;2023-09-18T05:28:57;20.50;99.90
4314;DHT22;2170;48.794;9.182;2023-09-18T05:35:25;20.60;99.90
4314;DHT22;2170;48.794;9.182;2023-09-18T05:38:28;20.60;99.90
4314;DHT22;2170;48.794;9.182;2023-09-18T05:41:45;20.60;99.90
4314;DHT22;2170;48.794;9.182;2023-09-18T05:44:40;20.60;99.90
4314;DHT22;2170;48.794;9.182;2023-09-18T05:47:48;20.60;99.90
4314;DHT22;2170;48.794;9.182;2023-09-18T05:50:50;20.60;99.90
4314;DHT22;2170;48.794;9.182;2023-09-18T05:54:04;20.60;99.90
4314;DHT22;2170;48.794;9.182;2023-09-18T05:57:12;20.60;99.90
4314;DHT22;2170;48.794;9.182;2023-09-18T06:00:16;20.60;99.90
4314;DHT22;2170;48.794;9.182;2023-09-18T06:03:54;20.60;99.90
4314;DHT22;2170;48.794;9.182;2023-09-18T06:10:04;20.60;99.90
4314;DHT22;2170;48.794;9.182;2023-09-18T06:13:27;20.60;99.90
4314;DHT22;2170;48.794;9.182;2023-09-18T06:27:27;20.60;99.90
4314;DHT22;2170;48.794;9.182;2023-09-18T06:30:27;20.60;99.90
4314;DHT22;2170;48.794;9.182;2023-09-18T06:33:10;20.60;99.90
4314;DHT22;2170;48.794;9.182;2023-09-18T06:36:04;20.50;99.90
4314;DHT22;2170;48.794;9.182;2023-09-18T06:38:53;20.50;99.90
4314;DHT22;2170;48.794;9.182;2023-09-18T06:41:37;20.50;99.90
4314;DHT22;2170;48.794;9.182;2023-09-18T06:48:23;20.50;99.90
4314;DHT22;2170;48.794;9.182;2023-09-18T06:51:09;20.50;99.90
4314;DHT22;2170;48.794;9.182;2023-09-18T06:53:49;20.50;99.90
4314;DHT22;2170;48.794;9.182;2023-09-18T06:56:30;20.50;99.90
4314;DHT22;2170;48.794;9.182;2023-09-18T06:59:11;20.40;99.90
4314;DHT22;2170;48.794;9.182;2023-09-18T07:02:00;20.40;99.90
4314;DHT22;2170;48.794;9.182;2023-09-18T07:04:47;20.40;99.90
4314;DHT22;2170;48.794;9.182;2023-09-18T07:07:27;20.40;99.90
4314;DHT22;2170;48.794;9.182;2023-09-18T07:10:10;20.40;99.90
4314;DHT22;2170;48.794;9.182;2023-09-18T07:15:33;20.50;99.90
4314;DHT22;2170;48.794;9.182;2023-09-18T07:18:05;20.60;99.90
4314;DHT22;2170;48.794;9.182;2023-09-18T07:20:41;20.60;99.90
4314;DHT22;2170;48.794;9.182;2023-09-18T07:23:21;20.60;99.90
4314;DHT22;2170;48.794;9.182;2023-09-18T07:26:00;20.60;99.90
4314;DHT22;2170;48.794;9.182;2023-09-18T07:28:39;20.70;99.90
4314;DHT22;2170;48.794;9.182;2023-09-18T07:34:38;20.80;99.90
4314;DHT22;2170;48.794;9.182;2023-09-18T07:37:12;20.80;99.90
4314;DHT22;2170;48.794;9.182;2023-09-18T07:39:53;20.90;99.90
4314;DHT22;2170;48.794;9.182;2023-09-18T07:42:27;20.90;99.90
4314;DHT22;2170;48.794;9.182;2023-09-18T07:45:03;20.90;99.90
4314;DHT22;2170;48.794;9.182;2023-09-18T07:47:56;21.00;99.90
4314;DHT22;2170;48.794;9.182;2023-09-18T07:50:34;21.00;99.90
4314;DHT22;2170;48.794;9.182;2023-09-18T07:53:06;21.10;99.90
4314;DHT22;2170;48.794;9.182;2023-09-18T07:55:46;21.20;99.90
4314;DHT22;2170;48.794;9.182;2023-09-18T07:58:30;21.20;99.90
4314;DHT22;2170;48.794;9.182;2023-09-18T08:01:26;21.20;99.90
4314;DHT22;2170;48.794;9.182;2023-09-18T08:04:05;21.20;99.90
4314;DHT22;2170;48.794;9.182;2023-09-18T08:06:56;21.20;99.90
4314;DHT22;2170;48.794;9.182;2023-09-18T08:09:31;21.30;99.90
4314;DHT22;2170;48.794;9.182;2023-09-18T08:12:19;21.30;99.90
4314;DHT22;2170;48.794;9.182;2023-09-18T08:14:51;21.30;99.90
4314;DHT22;2170;48.794;9.182;2023-09-18T08:17:44;21.30;99.90
4314;DHT22;2170;48.794;9.182;2023-09-18T08:20:15;21.30;99.90
4314;DHT22;2170;48.794;9.182;2023-09-18T08:22:51;21.20;99.90
4314;DHT22;2170;48.794;9.182;2023-09-18T08:26:14;21.20;99.90
4314;DHT22;2170;48.794;9.182;2023-09-18T08:28:58;21.20;99.90
4314;DHT22;2170;48.794;9.182;2023-09-18T08:31:34;21.30;99.90
4314;DHT22;2170;48.794;9.182;2023-09-18T08:34:34;21.20;99.90
4314;DHT22;2170;48.794;9.182;2023-09-18T08:37:18;21.20;99.90
4314;DHT22;2170;48.794;9.182;2023-09-18T08:40:28;21.30;99.90
4314;DHT22;2170;48.794;9.182;2023-09-18T08:43:25;21.20;99.90
4314;DHT22;2170;48.794;9.182;2023-09-18T08:46:22;21.30;99.90
4314;DHT22;2170;48.794;9.182;2023-09-18T08:49:00;21.20;99.90
4314;DHT22;2170;48.794;9.182;2023-09-18T08:51:46;21.20;99.90
4314;DHT22;2170;48.794;9.182;2023-09-18T08:54:32;21.10;99.90
4314;DHT22;2170;48.794;9.182;2023-09-18T08:57:22;20.90;99.90
4314;DHT22;2170;48.794;9.182;2023-09-18T09:00:04;20.90;99.90
4314;DHT22;2170;48.794;9.182;2023-09-18T09:02:52;20.80;99.90
4314;DHT22;2170;48.794;9.182;2023-09-18T09:05:38;20.80;99.90
4314;DHT22;2170;48.794;9.182;2023-09-18T09:08:12;20.80;99.90
4314;DHT22;2170;48.794;9.182;2023-09-18T09:10:52;20.60;99.90
4314;DHT22;2170;48.794;9.182;2023-09-18T09:13:33;20.50;99.90
4314;DHT22;2170;48.794;9.182;2023-09-18T09:16:33;20.60;99.90
4314;DHT22;2170;48.794;9.182;2023-09-18T09:22:24;20.50;99.90
4314;DHT22;2170;48.794;9.182;2023-09-18T09:25:03;20.40;99.90
4314;DHT22;2170;48.794;9.182;2023-09-18T09:28:04;20.50;99.90
4314;DHT22;2170;48.794;9.182;2023-09-18T09:34:02;20.10;99.90
4314;DHT22;2170;48.794;9.182;2023-09-18T09:36:57;20.00;99.90
4314;DHT22;2170;48.794;9.182;2023-09-18T09:39:33;20.00;99.90
4314;DHT22;2170;48.794;9.182;2023-09-18T09:42:06;20.00;99.90
4314;DHT22;2170;48.794;9.182;2023-09-18T09:44:36;19.90;99.90
4314;DHT22;2170;48.794;9.182;2023-09-18T09:47:11;20.00;99.90
4314;DHT22;2170;48.794;9.182;2023-09-18T09:49:50;20.10;99.90
4314;DHT22;2170;48.794;9.182;2023-09-18T09:52:23;20.10;99.90
4314;DHT22;2170;48.794;9.182;2023-09-18T09:55:01;20.10;99.90
4314;DHT22;2170;48.794;9.182;2023-09-18T09:57:49;20.20;99.90
4314;DHT22;2170;48.794;9.182;2023-09-18T10:00:18;20.20;99.90
4314;DHT22;2170;48.794;9.182;2023-09-18T10:03:03;20.30;99.90
4314;DHT22;2170;48.794;9.182;2023-09-18T10:05:45;20.30;99.90
4314;DHT22;2170;48.794;9.182;2023-09-18T10:08:17;20.40;99.90
4314;DHT22;2170;48.794;9.182;2023-09-18T10:10:51;20.40;99.90
4314;DHT22;2170;48.794;9.182;2023-09-18T10:13:36;20.40;99.90
4314;DHT22;2170;48.794;9.182;2023-09-18T10:16:07;20.30;99.90
4314;DHT22;2170;48.794;9.182;2023-09-18T10:18:53;20.40;99.90
4314;DHT22;2170;48.794;9.182;2023-09-18T10:22:05;20.30;99.90
4314;DHT22;2170;48.794;9.182;2023-09-18T10:24:56;20.20;99.90
4314;DHT22;2170;48.794;9.182;2023-09-18T10:27:31;20.20;99.90
4314;DHT22;2170;48.794;9.182;2023-09-18T10:30:01;20.20;99.90
4314;DHT22;2170;48.794;9.182;2023-09-18T10:32:33;20.10;99.90
4314;DHT22;2170;48.794;9.182;2023-09-18T10:35:04;20.10;99.90
4314;DHT22;2170;48.794;9.182;2023-09-18T10:37:39;20.10;99.90
4314;DHT22;2170;48.794;9.182;2023-09-18T10:40:48;20.10;99.90
4314;DHT22;2170;48.794;9.182;2023-09-18T10:43:39;20.00;99.90
4314;DHT22;2170;48.794;9.182;2023-09-18T10:46:24;19.90;99.90
4314;DHT22;2170;48.794;9.182;2023-09-18T10:49:15;19.90;99.90
4314;DHT22;2170;48.794;9.182;2023-09-18T11:28:14;19.90;99.90
4314;DHT22;2170;48.794;9.182;2023-09-18T11:30:52;19.90;99.90
4314;DHT22;2170;48.794;9.182;2023-09-18T11:33:39;19.90;99.90
4314;DHT22;2170;48.794;9.182;2023-09-18T11:36:32;19.90;99.90
4314;DHT22;2170;48.794;9.182;2023-09-18T11:39:08;19.90;99.90
4314;DHT22;2170;48.794;9.182;2023-09-18T11:42:06;19.90;99.90
4314;DHT22;2170;48.794;9.182;2023-09-18T11:44:54;20.00;99.90
4314;DHT22;2170;48.794;9.182;2023-09-18T11:47:27;20.00;99.90
4314;DHT22;2170;48.794;9.182;2023-09-18T11:49:59;20.00;99.90
4314;DHT22;2170;48.794;9.182;2023-09-18T11:52:32;19.90;99.90
4314;DHT22;2170;48.794;9.182;2023-09-18T11:55:09;20.20;99.90
4314;DHT22;2170;48.794;9.182;2023-09-18T11:57:40;20.10;99.90
4314;DHT22;2170;48.794;9.182;2023-09-18T12:00:21;19.70;99.90
4314;DHT22;2170;48.794;9.182;2023-09-18T12:03:15;20.10;99.90
4314;DHT22;2170;48.794;9.182;2023-09-18T12:06:29;20.20;99.90
4314;DHT22;2170;48.794;9.182;2023-09-18T12:10:37;20.30;99.90
4314;DHT22;2170;48.794;9.182;2023-09-18T12:12:45;20.30;99.90
4314;DHT22;2170;48.794;9.182;2023-09-18T12:15:30;20.30;99.90
4314;DHT22;2170;48.794;9.182;2023-09-18T12:18:06;20.30;99.90
4314;DHT22;2170;48.794;9.182;2023-09-18T12:20:44;20.30;99.90
4314;DHT22;2170;48.794;9.182;2023-09-18T12:23:13;20.30;99.90
4314;DHT22;2170;48.794;9.182;2023-09-18T12:25:48;20.40;99.90
4314;DHT22;2170;48.794;9.182;2023-09-18T12:28:18;20.30;99.90
4314;DHT22;2170;48.794;9.182;2023-09-18T12:30:48;20.30;99.90
4314;DHT22;2170;48.794;9.182;2023-09-18T12:33:22;20.30;99.90
4314;DHT22;2170;48.794;9.182;2023-09-18T12:35:51;20.30;99.90
4314;DHT22;2170;48.794;9.182;2023-09-18T12:38:19;20.30;99.90
4314;DHT22;2170;48.794;9.182;2023-09-18T12:40:55;20.40;99.90
4314;DHT22;2170;48.794;9.182;2023-09-18T12:43:33;20.50;99.90
4314;DHT22;2170;48.794;9.182;2023-09-18T12:46:05;20.50;99.90
4314;DHT22;2170;48.794;9.182;2023-09-18T12:48:38;20.70;99.90
4314;DHT22;2170;48.794;9.182;2023-09-18T12:51:14;20.80;99.90
4314;DHT22;2170;48.794;9.182;2023-09-18T12:53:59;21.00;99.90
4314;DHT22;2170;48.794;9.182;2023-09-18T12:56:33;21.20;99.90
4314;DHT22;2170;48.794;9.182;2023-09-18T12:59:03;21.30;99.90
4314;DHT22;2170;48.794;9.182;2023-09-18T13:01:37;21.50;99.90
4314;DHT22;2170;48.794;9.182;2023-09-18T13:04:15;21.60;99.90
4314;DHT22;2170;48.794;9.182;2023-09-18T13:07:31;21.60;99.90
4314;DHT22;2170;48.794;9.182;2023-09-18T13:10:27;21.70;99.90
4314;DHT22;2170;48.794;9.182;2023-09-18T13:16:04;21.80;99.90
4314;DHT22;2170;48.794;9.182;2023-09-18T13:18:39;21.90;99.90
4314;DHT22;2170;48.794;9.182;2023-09-18T13:21:12;21.90;99.90
4314;DHT22;2170;48.794;9.182;2023-09-18T13:23:47;22.10;99.90
4314;DHT22;2170;48.794;9.182;2023-09-18T13:26:40;22.30;99.90
4314;DHT22;2170;48.794;9.182;2023-09-18T13:29:25;22.40;99.90
4314;DHT22;2170;48.794;9.182;2023-09-18T13:35:30;22.40;99.90
4314;DHT22;2170;48.794;9.182;2023-09-18T13:37:57;22.50;99.90
4314;DHT22;2170;48.794;9.182;2023-09-18T13:40:23;22.80;99.90
4314;DHT22;2170;48.794;9.182;2023-09-18T13:42:50;22.90;99.90
4314;DHT22;2170;48.794;9.182;2023-09-18T13:45:17;23.10;99.90
4314;DHT22;2170;48.794;9.182;2023-09-18T13:47:44;23.20;99.90
4314;DHT22;2170;48.794;9.182;2023-09-18T13:50:11;23.20;99.90
4314;DHT22;2170;48.794;9.182;2023-09-18T13:52:40;23.10;99.90
4314;DHT22;2170;48.794;9.182;2023-09-18T13:55:07;23.10;99.90
4314;DHT22;2170;48.794;9.182;2023-09-18T13:57:35;23.10;99.90
4314;DHT22;2170;48.794;9.182;2023-09-18T14:00:03;23.00;99.90
4314;DHT22;2170;48.794;9.182;2023-09-18T14:02:32;23.10;99.90
4314;DHT22;2170;48.794;9.182;2023-09-18T14:04:59;23.30;99.90
4314;DHT22;2170;48.794;9.182;2023-09-18T14:07:26;23.20;99.90
4314;DHT22;2170;48.794;9.182;2023-09-18T14:09:54;23.20;99.90
4314;DHT22;2170;48.794;9.182;2023-09-18T14:12:21;23.20;99.90
4314;DHT22;2170;48.794;9.182;2023-09-18T14:14:48;23.10;99.90
4314;DHT22;2170;48.794;9.182;2023-09-18T14:17:15;23.10;99.90
4314;DHT22;2170;48.794;9.182;2023-09-18T14:19:43;23.00;99.90
4314;DHT22;2170;48.794;9.182;2023-09-18T14:22:10;23.10;99.90
4314;DHT22;2170;48.794;9.182;2023-09-18T14:24:37;23.00;99.90
4314;DHT22;2170;48.794;9.182;2023-09-18T14:27:05;23.20;99.90
4314;DHT22;2170;48.794;9.182;2023-09-18T14:29:32;23.20;99.90
4314;DHT22;2170;48.794;9.182;2023-09-18T14:31:59;23.30;99.90
4314;DHT22;2170;48.794;9.182;2023-09-18T14:34:25;23.00;99.90
4314;DHT22;2170;48.794;9.182;2023-09-18T14:36:52;23.00;99.90
4314;DHT22;2170;48.794;9.182;2023-09-18T14:39:19;23.20;99.90
4314;DHT22;2170;48.794;9.182;2023-09-18T14:41:45;23.20;99.90
4314;DHT22;2170;48.794;9.182;2023-09-18T14:44:14;23.30;99.90
4314;DHT22;2170;48.794;9.182;2023-09-18T14:46:41;23.50;99.90
4314;DHT22;2170;48.794;9.182;2023-09-18T14:49:08;23.60;99.90
4314;DHT22;2170;48.794;9.182;2023-09-18T14:51:35;23.70;99.90
4314;DHT22;2170;48.794;9.182;2023-09-18T14:54:02;23.70;99.90
4314;DHT22;2170;48.794;9.182;2023-09-18T14:56:30;23.90;99.90
4314;DHT22;2170;48.794;9.182;2023-09-18T14:58:57;24.00;99.90
4314;DHT22;2170;48.794;9.182;2023-09-18T15:01:25;24.20;99.90
4314;DHT22;2170;48.794;9.182;2023-09-18T15:03:52;24.30;99.90
4314;DHT22;2170;48.794;9.182;2023-09-18T15:06:18;24.50;99.90
4314;DHT22;2170;48.794;9.182;2023-09-18T15:08:45;24.50;99.90
4314;DHT22;2170;48.794;9.182;2023-09-18T15:11:13;24.40;99.90
4314;DHT22;2170;48.794;9.182;2023-09-18T15:13:42;24.40;99.90
4314;DHT22;2170;48.794;9.182;2023-09-18T15:16:09;24.30;99.90
4314;DHT22;2170;48.794;9.182;2023-09-18T15:18:37;24.10;99.90
4314;DHT22;2170;48.794;9.182;2023-09-18T15:21:04;24.10;99.90
4314;DHT22;2170;48.794;9.182;2023-09-18T15:23:31;23.60;99.90
4314;DHT22;2170;48.794;9.182;2023-09-18T15:25:58;23.50;99.90
4314;DHT22;2170;48.794;9.182;2023-09-18T15:28:25;23.80;99.90
4314;DHT22;2170;48.794;9.182;2023-09-18T15:30:54;24.00;99.90
4314;DHT22;2170;48.794;9.182;2023-09-18T15:33:21;24.10;99.90
4314;DHT22;2170;48.794;9.182;2023-09-18T15:35:50;24.30;99.90
4314;DHT22;2170;48.794;9.182;2023-09-18T15:38:19;24.40;99.90
4314;DHT22;2170;48.794;9.182;2023-09-18T15:40:46;24.50;99.90
4314;DHT22;2170;48.794;9.182;2023-09-18T15:43:13;24.50;99.90
4314;DHT22;2170;48.794;9.182;2023-09-18T15:45:40;24.60;99.90
4314;DHT22;2170;48.794;9.182;2023-09-18T15:48:07;24.60;99.90
4314;DHT22;2170;48.794;9.182;2023-09-18T15:50:34;24.70;99.90
4314;DHT22;2170;48.794;9.182;2023-09-18T15:53:03;24.50;99.90
4314;DHT22;2170;48.794;9.182;2023-09-18T15:55:29;24.60;99.90
4314;DHT22;2170;48.794;9.182;2023-09-18T15:57:56;24.40;99.90
4314;DHT22;2170;48.794;9.182;2023-09-18T16:00:23;24.70;99.90
4314;DHT22;2170;48.794;9.182;2023-09-18T16:02:49;24.90;99.90
4314;DHT22;2170;48.794;9.182;2023-09-18T16:05:17;24.90;99.90
4314;DHT22;2170;48.794;9.182;2023-09-18T16:07:51;24.50;99.90
4314;DHT22;2170;48.794;9.182;2023-09-18T16:10:19;24.40;99.90
4314;DHT22;2170;48.794;9.182;2023-09-18T16:12:46;24.30;99.90
4314;DHT22;2170;48.794;9.182;2023-09-18T16:15:13;24.20;99.90
4314;DHT22;2170;48.794;9.182;2023-09-18T16:17:39;24.20;99.90
4314;DHT22;2170;48.794;9.182;2023-09-18T16:20:07;24.10;99.90
4314;DHT22;2170;48.794;9.182;2023-09-18T16:22:34;23.90;99.90
4314;DHT22;2170;48.794;9.182;2023-09-18T16:25:00;23.80;99.90
4314;DHT22;2170;48.794;9.182;2023-09-18T16:27:28;23.60;99.90
4314;DHT22;2170;48.794;9.182;2023-09-18T16:29:56;23.60;99.90
4314;DHT22;2170;48.794;9.182;2023-09-18T16:32:23;23.30;99.90
4314;DHT22;2170;48.794;9.182;2023-09-18T16:34:50;23.10;99.90
4314;DHT22;2170;48.794;9.182;2023-09-18T16:37:17;23.00;99.90
4314;DHT22;2170;48.794;9.182;2023-09-18T16:39:43;22.90;99.90
4314;DHT22;2170;48.794;9.182;2023-09-18T16:42:10;22.90;99.90
4314;DHT22;2170;48.794;9.182;2023-09-18T16:44:38;22.90;99.90
4314;DHT22;2170;48.794;9.182;2023-09-18T16:47:06;23.10;99.90
4314;DHT22;2170;48.794;9.182;2023-09-18T16:49:33;22.80;99.90
4314;DHT22;2170;48.794;9.182;2023-09-18T16:52:00;22.80;99.90
4314;DHT22;2170;48.794;9.182;2023-09-18T16:54:29;22.70;99.90
4314;DHT22;2170;48.794;9.182;2023-09-18T16:56:56;22.50;99.90
4314;DHT22;2170;48.794;9.182;2023-09-18T16:59:23;22.50;99.90
4314;DHT22;2170;48.794;9.182;2023-09-18T17:01:54;22.30;99.90
4314;DHT22;2170;48.794;9.182;2023-09-18T17:04:21;22.30;99.90
4314;DHT22;2170;48.794;9.182;2023-09-18T17:06:48;22.20;99.90
4314;DHT22;2170;48.794;9.182;2023-09-18T17:09:14;22.10;99.90
4314;DHT22;2170;48.794;9.182;2023-09-18T17:11:41;22.10;99.90
4314;DHT22;2170;48.794;9.182;2023-09-18T17:14:08;22.00;99.90
4314;DHT22;2170;48.794;9.182;2023-09-18T17:16:34;22.00;99.90
4314;DHT22;2170;48.794;9.182;2023-09-18T17:19:03;22.00;99.90
4314;DHT22;2170;48.794;9.182;2023-09-18T17:21:31;21.90;99.90
4314;DHT22;2170;48.794;9.182;2023-09-18T17:23:58;21.80;99.90
4314;DHT22;2170;48.794;9.182;2023-09-18T17:26:24;21.80;99.90
4314;DHT22;2170;48.794;9.182;2023-09-18T17:28:53;21.80;99.90
4314;DHT22;2170;48.794;9.182;2023-09-18T17:31:21;21.80;99.90
4314;DHT22;2170;48.794;9.182;2023-09-18T17:33:47;21.80;99.90
4314;DHT22;2170;48.794;9.182;2023-09-18T17:36:17;21.80;99.90
4314;DHT22;2170;48.794;9.182;2023-09-18T17:38:44;21.80;99.90
4314;DHT22;2170;48.794;9.182;2023-09-18T17:41:11;21.80;99.90
4314;DHT22;2170;48.794;9.182;2023-09-18T17:43:38;21.70;99.90
4314;DHT22;2170;48.794;9.182;2023-09-18T17:46:05;21.70;99.90
4314;DHT22;2170;48.794;9.182;2023-09-18T17:48:31;21.60;99.90
4314;DHT22;2170;48.794;9.182;2023-09-18T17:50:59;21.60;99.90
4314;DHT22;2170;48.794;9.182;2023-09-18T17:53:27;21.60;99.90
4314;DHT22;2170;48.794;9.182;2023-09-18T17:55:54;21.50;99.90
4314;DHT22;2170;48.794;9.182;2023-09-18T17:58:22;21.50;99.90
4314;DHT22;2170;48.794;9.182;2023-09-18T18:00:49;21.50;99.90
4314;DHT22;2170;48.794;9.182;2023-09-18T18:03:18;21.30;99.90
4314;DHT22;2170;48.794;9.182;2023-09-18T18:05:46;21.30;99.90
4314;DHT22;2170;48.794;9.182;2023-09-18T18:08:14;21.20;99.90
4314;DHT22;2170;48.794;9.182;2023-09-18T18:10:43;21.20;99.90
4314;DHT22;2170;48.794;9.182;2023-09-18T18:13:10;21.10;99.90
4314;DHT22;2170;48.794;9.182;2023-09-18T18:15:37;21.10;99.90
4314;DHT22;2170;48.794;9.182;2023-09-18T18:18:05;21.10;99.90
4314;DHT22;2170;48.794;9.182;2023-09-18T18:20:33;21.10;99.90
4314;DHT22;2170;48.794;9.182;2023-09-18T18:23:01;21.00;99.90
4314;DHT22;2170;48.794;9.182;2023-09-18T18:25:30;20.90;99.90
4314;DHT22;2170;48.794;9.182;2023-09-18T18:27:58;20.90;99.90
4314;DHT22;2170;48.794;9.182;2023-09-18T18:30:24;20.90;99.90
4314;DHT22;2170;48.794;9.182;2023-09-18T18:32:51;20.90;99.90
4314;DHT22;2170;48.794;9.182;2023-09-18T18:35:18;20.90;99.90
4314;DHT22;2170;48.794;9.182;2023-09-18T18:37:46;20.80;99.90
4314;DHT22;2170;48.794;9.182;2023-09-18T18:40:14;21.00;99.90
4314;DHT22;2170;48.794;9.182;2023-09-18T18:42:41;20.80;99.90
4314;DHT22;2170;48.794;9.182;2023-09-18T18:45:10;20.80;99.90
4314;DHT22;2170;48.794;9.182;2023-09-18T18:47:38;20.80;99.90
4314;DHT22;2170;48.794;9.182;2023-09-18T18:50:06;20.70;99.90
4314;DHT22;2170;48.794;9.182;2023-09-18T18:52:33;20.80;99.90
4314;DHT22;2170;48.794;9.182;2023-09-18T18:54:59;20.60;99.90
4314;DHT22;2170;48.794;9.182;2023-09-18T18:57:26;20.60;99.90
4314;DHT22;2170;48.794;9.182;2023-09-18T18:59:53;20.60;99.90
4314;DHT22;2170;48.794;9.182;2023-09-18T19:02:21;20.60;99.90
4314;DHT22;2170;48.794;9.182;2023-09-18T19:04:48;20.60;99.90
4314;DHT22;2170;48.794;9.182;2023-09-18T19:07:15;20.60;99.90
4314;DHT22;2170;48.794;9.182;2023-09-18T19:09:44;20.60;99.90
4314;DHT22;2170;48.794;9.182;2023-09-18T19:12:11;20.50;99.90
4314;DHT22;2170;48.794;9.182;2023-09-18T19:14:38;20.60;99.90
4314;DHT22;2170;48.794;9.182;2023-09-18T19:17:04;20.50;99.90
4314;DHT22;2170;48.794;9.182;2023-09-18T19:19:32;20.50;99.90
4314;DHT22;2170;48.794;9.182;2023-09-18T19:21:59;20.50;99.90
4314;DHT22;2170;48.794;9.182;2023-09-18T19:24:26;20.40;99.90
4314;DHT22;2170;48.794;9.182;2023-09-18T19:26:53;20.40;99.90
4314;DHT22;2170;48.794;9.182;2023-09-18T19:29:19;20.30;99.90
4314;DHT22;2170;48.794;9.182;2023-09-18T19:31:46;20.30;99.90
4314;DHT22;2170;48.794;9.182;2023-09-18T19:34:14;20.20;99.90
4314;DHT22;2170;48.794;9.182;2023-09-18T19:36:43;20.10;99.90
4314;DHT22;2170;48.794;9.182;2023-09-18T19:39:13;20.00;99.90
4314;DHT22;2170;48.794;9.182;2023-09-18T19:41:40;19.90;99.90
4314;DHT22;2170;48.794;9.182;2023-09-18T19:44:07;20.00;99.90
4314;DHT22;2170;48.794;9.182;2023-09-18T19:46:33;19.80;99.90
4314;DHT22;2170;48.794;9.182;2023-09-18T19:49:01;19.80;99.90
4314;DHT22;2170;48.794;9.182;2023-09-18T19:51:29;19.70;99.90
4314;DHT22;2170;48.794;9.182;2023-09-18T19:53:59;19.70;99.90
4314;DHT22;2170;48.794;9.182;2023-09-18T19:56:28;19.60;99.90
4314;DHT22;2170;48.794;9.182;2023-09-18T19:58:56;19.50;99.90
4314;DHT22;2170;48.794;9.182;2023-09-18T20:01:22;19.50;99.90
4314;DHT22;2170;48.794;9.182;2023-09-18T20:03:49;19.40;99.90
4314;DHT22;2170;48.794;9.182;2023-09-18T20:06:16;19.30;99.90
4314;DHT22;2170;48.794;9.182;2023-09-18T20:08:43;19.30;99.90
4314;DHT22;2170;48.794;9.182;2023-09-18T20:11:11;19.20;99.90
4314;DHT22;2170;48.794;9.182;2023-09-18T20:13:38;19.20;99.90
4314;DHT22;2170;48.794;9.182;2023-09-18T20:16:04;19.10;99.90
4314;DHT22;2170;48.794;9.182;2023-09-18T20:18:31;19.10;99.90
4314;DHT22;2170;48.794;9.182;2023-09-18T20:20:58;19.30;99.90
4314;DHT22;2170;48.794;9.182;2023-09-18T20:23:27;18.90;99.90
4314;DHT22;2170;48.794;9.182;2023-09-18T20:25:54;18.80;99.90
4314;DHT22;2170;48.794;9.182;2023-09-18T20:28:23;18.70;99.90
4314;DHT22;2170;48.794;9.182;2023-09-18T20:30:51;18.70;99.90
4314;DHT22;2170;48.794;9.182;2023-09-18T20:33:18;18.60;99.90
4314;DHT22;2170;48.794;9.182;2023-09-18T20:35:44;18.60;99.90
4314;DHT22;2170;48.794;9.182;2023-09-18T20:38:11;18.50;99.90
4314;DHT22;2170;48.794;9.182;2023-09-18T20:40:38;18.50;99.90
4314;DHT22;2170;48.794;9.182;2023-09-18T20:43:07;18.50;99.90
4314;DHT22;2170;48.794;9.182;2023-09-18T20:45:36;18.40;99.90
4314;DHT22;2170;48.794;9.182;2023-09-18T20:48:04;18.40;99.90
4314;DHT22;2170;48.794;9.182;2023-09-18T20:50:32;18.30;99.90
4314;DHT22;2170;48.794;9.182;2023-09-18T20:52:59;18.30;99.90
4314;DHT22;2170;48.794;9.182;2023-09-18T20:55:27;18.30;99.90
4314;DHT22;2170;48.794;9.182;2023-09-18T20:58:12;18.20;99.90
4314;DHT22;2170;48.794;9.182;2023-09-18T21:00:40;18.20;99.90
4314;DHT22;2170;48.794;9.182;2023-09-18T21:03:07;18.20;99.90
4314;DHT22;2170;48.794;9.182;2023-09-18T21:05:34;18.10;99.90
4314;DHT22;2170;48.794;9.182;2023-09-18T21:08:01;18.10;99.90
4314;DHT22;2170;48.794;9.182;2023-09-18T21:10:28;18.10;99.90
4314;DHT22;2170;48.794;9.182;2023-09-18T21:12:54;18.00;99.90
4314;DHT22;2170;48.794;9.182;2023-09-18T21:15:21;18.00;99.90
4314;DHT22;2170;48.794;9.182;2023-09-18T21:17:49;17.90;99.90
4314;DHT22;2170;48.794;9.182;2023-09-18T21:20:17;17.90;99.90
4314;DHT22;2170;48.794;9.182;2023-09-18T21:22:43;17.80;99.90
4314;DHT22;2170;48.794;9.182;2023-09-18T21:25:10;17.80;99.90
4314;DHT22;2170;48.794;9.182;2023-09-18T21:27:37;17.80;99.90
4314;DHT22;2170;48.794;9.182;2023-09-18T21:30:05;17.80;99.90
4314;DHT22;2170;48.794;9.182;2023-09-18T21:32:33;17.80;99.90
4314;DHT22;2170;48.794;9.182;2023-09-18T21:35:03;17.70;99.90
4314;DHT22;2170;48.794;9.182;2023-09-18T21:37:30;17.70;99.90
4314;DHT22;2170;48.794;9.182;2023-09-18T21:39:56;17.70;99.90
4314;DHT22;2170;48.794;9.182;2023-09-18T21:42:23;17.60;99.90
4314;DHT22;2170;48.794;9.182;2023-09-18T21:44:50;17.60;99.90
4314;DHT22;2170;48.794;9.182;2023-09-18T21:47:17;17.60;99.90
4314;DHT22;2170;48.794;9.182;2023-09-18T21:49:43;17.60;99.90
4314;DHT22;2170;48.794;9.182;2023-09-18T21:52:12;17.60;99.90
4314;DHT22;2170;48.794;9.182;2023-09-18T21:54:39;17.60;99.90
4314;DHT22;2170;48.794;9.182;2023-09-18T21:57:06;17.70;99.90